Time;durP1;ratioP1;P1;durP2;ratioP2;P2;SDS_P1;SDS_P2;PMS_P1;PMS_P2;Temp;Humidity;BMP_temperature;BMP_pressure;BME280_temperature;BME280_humidity;BME280_pressure;Samples;Min_cycle;Max_cycle;Signal;HPM_P1;HPM_P2
2022/11/04 00:00:39;;;;;;;11.50;5.38;;;;;;;;;;5092641;28;20059;-56
2022/11/04 00:03:06;;;;;;;11.52;6.05;;;;;;;;;;5088571;28;20068;-56
2022/11/04 00:05:34;;;;;;;12.18;5.22;;;;;;;;;;5092854;28;20460;-56
2022/11/04 00:13:34;;;;;;;10.65;5.22;;;;;;;;;;5091838;28;20115;-53
2022/11/04 00:18:48;;;;;;;12.35;5.68;;;;;;;;;;5088341;28;20530;-56
2022/11/04 00:29:26;;;;;;;11.65;5.35;;;;;;;;;;5061170;28;20063;-55
2022/11/04 00:34:43;;;;;;;11.15;5.80;;;;;;;;;;5092385;28;20062;-56
2022/11/04 00:37:11;;;;;;;12.00;4.75;;;;;;;;;;5091956;28;20097;-55
2022/11/04 00:39:40;;;;;;;12.85;5.38;;;;;;;;;;5092505;28;20044;-54
2022/11/04 00:42:06;;;;;;;11.27;5.00;;;;;;;;;;5092592;28;20048;-52
2022/11/04 00:44:34;;;;;;;11.48;4.93;;;;;;;;;;5092489;28;20058;-54
2022/11/04 00:47:16;;;;;;;10.18;5.50;;;;;;;;;;5092237;28;20067;-56
2022/11/04 00:49:43;;;;;;;12.73;4.60;;;;;;;;;;5091821;28;20059;-54
2022/11/04 00:52:10;;;;;;;11.05;4.57;;;;;;;;;;5092932;28;20059;-52
2022/11/04 00:54:37;;;;;;;15.15;5.47;;;;;;;;;;5092574;28;20056;-53
2022/11/04 00:57:05;;;;;;;8.45;3.60;;;;;;;;;;5092474;28;20048;-55
2022/11/04 00:59:32;;;;;;;8.25;4.25;;;;;;;;;;5092360;28;20105;-56
2022/11/04 01:02:07;;;;;;;10.75;4.78;;;;;;;;;;5092431;28;20070;-52
2022/11/04 01:04:35;;;;;;;13.95;4.38;;;;;;;;;;5092155;28;20436;-55
2022/11/04 01:07:05;;;;;;;12.98;4.78;;;;;;;;;;5090626;28;20492;-53
2022/11/04 01:09:34;;;;;;;8.90;4.03;;;;;;;;;;5091761;28;20421;-55
2022/11/04 01:12:03;;;;;;;10.07;4.10;;;;;;;;;;5084556;28;20044;-55
2022/11/04 01:14:33;;;;;;;8.77;3.35;;;;;;;;;;5091410;28;20457;-56
2022/11/04 01:16:59;;;;;;;10.07;4.38;;;;;;;;;;5092076;28;20442;-52
2022/11/04 01:19:37;;;;;;;10.38;3.95;;;;;;;;;;5092614;28;20044;-54
2022/11/04 01:22:06;;;;;;;7.43;3.53;;;;;;;;;;5092236;28;20054;-55
2022/11/04 01:24:34;;;;;;;12.82;4.53;;;;;;;;;;5092074;28;20088;-55
2022/11/04 01:27:01;;;;;;;8.05;4.18;;;;;;;;;;5086339;28;20063;-53
2022/11/04 01:29:30;;;;;;;7.13;3.20;;;;;;;;;;5090751;28;20128;-56
2022/11/04 01:31:57;;;;;;;10.30;4.45;;;;;;;;;;5092164;28;20044;-53
2022/11/04 01:34:27;;;;;;;9.50;4.00;;;;;;;;;;5092482;28;20062;-54
2022/11/04 01:36:56;;;;;;;10.35;4.00;;;;;;;;;;5079629;28;20048;-53
2022/11/04 01:39:26;;;;;;;10.68;3.58;;;;;;;;;;5095647;28;20051;-53
2022/11/04 01:41:53;;;;;;;9.57;3.90;;;;;;;;;;5096185;28;20100;-53
2022/11/04 01:44:37;;;;;;;9.43;5.03;;;;;;;;;;5094616;28;20044;-53
2022/11/04 01:47:07;;;;;;;7.55;3.40;;;;;;;;;;5082731;28;20062;-56
2022/11/04 01:49:38;;;;;;;8.18;4.25;;;;;;;;;;5095747;28;20040;-56
2022/11/04 01:52:15;;;;;;;8.70;4.13;;;;;;;;;;5096112;28;20047;-56
2022/11/04 01:54:44;;;;;;;8.70;3.50;;;;;;;;;;5089091;28;20135;-54
2022/11/04 01:57:21;;;;;;;8.30;3.78;;;;;;;;;;5090128;28;20047;-55
2022/11/04 01:59:49;;;;;;;7.85;3.72;;;;;;;;;;5095751;28;20052;-56
2022/11/04 02:02:19;;;;;;;6.55;3.30;;;;;;;;;;5094443;28;20072;-55
2022/11/04 02:04:49;;;;;;;9.55;3.97;;;;;;;;;;5095760;28;20080;-52
2022/11/04 02:07:19;;;;;;;10.32;4.43;;;;;;;;;;5095245;28;20105;-54
2022/11/04 02:09:45;;;;;;;10.20;3.75;;;;;;;;;;5095538;28;20044;-53
2022/11/04 02:15:00;;;;;;;10.02;4.10;;;;;;;;;;5095118;28;20070;-55
2022/11/04 02:18:10;;;;;;;11.40;3.83;;;;;;;;;;5095410;28;20092;-52
2022/11/04 02:20:49;;;;;;;9.48;4.13;;;;;;;;;;5094748;28;20092;-54
2022/11/04 02:23:39;;;;;;;9.38;4.15;;;;;;;;;;5095073;28;20067;-56
2022/11/04 02:26:22;;;;;;;7.82;3.10;;;;;;;;;;5094164;28;20036;-53
2022/11/04 02:29:07;;;;;;;7.75;3.70;;;;;;;;;;5095321;28;20044;-54
2022/11/04 02:31:43;;;;;;;7.30;3.80;;;;;;;;;;5029225;28;20056;-54
2022/11/04 02:34:12;;;;;;;8.48;3.58;;;;;;;;;;5032423;28;20045;-55
2022/11/04 02:36:43;;;;;;;8.68;3.92;;;;;;;;;;5069553;28;20059;-52
2022/11/04 02:39:16;;;;;;;7.95;3.78;;;;;;;;;;5095019;28;20048;-55
2022/11/04 02:41:49;;;;;;;10.35;3.72;;;;;;;;;;5083925;28;20044;-53
2022/11/04 02:44:18;;;;;;;11.13;3.83;;;;;;;;;;5078240;28;20044;-55
2022/11/04 02:46:56;;;;;;;8.00;3.85;;;;;;;;;;5094717;28;20056;-54
2022/11/04 02:49:29;;;;;;;8.52;3.80;;;;;;;;;;5094129;28;20058;-53
2022/11/04 02:51:59;;;;;;;9.55;3.30;;;;;;;;;;5094299;28;20101;-54
2022/11/04 02:54:29;;;;;;;9.13;3.63;;;;;;;;;;5094546;28;20056;-55
2022/11/04 02:56:58;;;;;;;11.77;3.60;;;;;;;;;;5091021;28;20055;-53
2022/11/04 02:59:30;;;;;;;11.68;4.00;;;;;;;;;;5085727;28;20140;-55
2022/11/04 03:02:08;;;;;;;9.10;3.78;;;;;;;;;;5090963;28;20047;-55
2022/11/04 03:04:38;;;;;;;6.32;3.25;;;;;;;;;;5094719;28;20063;-53
2022/11/04 03:07:08;;;;;;;6.60;3.50;;;;;;;;;;5094620;28;20047;-57
2022/11/04 03:09:37;;;;;;;10.10;3.55;;;;;;;;;;5092354;28;20546;-57
2022/11/04 03:12:07;;;;;;;6.53;2.72;;;;;;;;;;5093245;28;20063;-57
2022/11/04 03:14:37;;;;;;;10.43;3.30;;;;;;;;;;5093818;28;20074;-55
2022/11/04 03:17:07;;;;;;;9.55;3.63;;;;;;;;;;5094533;28;20059;-56
2022/11/04 03:19:43;;;;;;;11.43;3.75;;;;;;;;;;5094025;28;20036;-53
2022/11/04 03:22:19;;;;;;;11.25;4.32;;;;;;;;;;5093875;28;20127;-53
2022/11/04 03:24:49;;;;;;;11.85;4.00;;;;;;;;;;5087000;28;20060;-56
2022/11/04 03:27:22;;;;;;;10.80;3.63;;;;;;;;;;5088641;28;20129;-54
2022/11/04 03:29:54;;;;;;;12.90;3.08;;;;;;;;;;5094214;28;20048;-56
2022/11/04 03:32:34;;;;;;;7.63;3.42;;;;;;;;;;5093706;28;20366;-54
2022/11/04 03:35:02;;;;;;;4.47;2.42;;;;;;;;;;5091838;28;20105;-56
2022/11/04 03:37:29;;;;;;;7.03;3.17;;;;;;;;;;5093763;28;20052;-55
2022/11/04 03:39:58;;;;;;;8.65;3.15;;;;;;;;;;5093739;28;20055;-52
2022/11/04 03:42:29;;;;;;;6.63;2.95;;;;;;;;;;5093454;28;20056;-54
2022/11/04 03:44:57;;;;;;;6.80;3.00;;;;;;;;;;5093913;28;20043;-56
2022/11/04 03:47:29;;;;;;;6.30;2.75;;;;;;;;;;5092722;28;20066;-56
2022/11/04 03:50:01;;;;;;;6.47;3.53;;;;;;;;;;5093716;28;20059;-54
2022/11/04 03:52:28;;;;;;;6.50;2.95;;;;;;;;;;5080539;28;20056;-56
2022/11/04 03:54:58;;;;;;;8.07;3.20;;;;;;;;;;5081940;28;20079;-55
2022/11/04 03:57:35;;;;;;;4.90;3.08;;;;;;;;;;5093606;28;20054;-55
2022/11/04 04:00:05;;;;;;;8.07;3.47;;;;;;;;;;5092566;28;20083;-55
2022/11/04 04:02:48;;;;;;;8.00;3.13;;;;;;;;;;5093607;28;20070;-53
2022/11/04 04:05:23;;;;;;;6.97;2.88;;;;;;;;;;5093298;28;20074;-54
2022/11/04 04:08:14;;;;;;;6.78;3.03;;;;;;;;;;5093040;28;20048;-53
2022/11/04 04:10:45;;;;;;;7.45;3.05;;;;;;;;;;5083936;28;20051;-55
2022/11/04 04:13:29;;;;;;;8.55;3.00;;;;;;;;;;5093200;28;20044;-55
2022/11/04 04:15:57;;;;;;;6.95;2.72;;;;;;;;;;5092068;28;20094;-55
2022/11/04 04:18:29;;;;;;;6.93;3.25;;;;;;;;;;5093102;28;20052;-55
2022/11/04 04:21:03;;;;;;;7.63;3.08;;;;;;;;;;5093084;28;20056;-56
2022/11/04 04:29:05;;;;;;;8.55;2.97;;;;;;;;;;5081645;28;20054;-55
2022/11/04 04:31:52;;;;;;;9.52;3.00;;;;;;;;;;5092623;28;20047;-56
2022/11/04 04:34:24;;;;;;;5.03;2.45;;;;;;;;;;5093044;28;20052;-54
2022/11/04 04:37:00;;;;;;;8.88;2.95;;;;;;;;;;5093076;28;20063;-55
2022/11/04 04:45:05;;;;;;;;;;;;;;;;;;5093315;28;20062;-52
2022/11/04 04:47:42;;;;;;;8.00;3.28;;;;;;;;;;5092192;28;19920;-55
2022/11/04 04:50:10;;;;;;;10.60;3.05;;;;;;;;;;5092541;28;20059;-56
2022/11/04 04:52:47;;;;;;;9.65;3.72;;;;;;;;;;5092452;28;20052;-55
2022/11/04 04:55:15;;;;;;;7.03;3.13;;;;;;;;;;5092457;28;20105;-55
2022/11/04 04:57:43;;;;;;;8.60;3.00;;;;;;;;;;5092754;28;20059;-54
2022/11/04 05:00:12;;;;;;;9.85;3.65;;;;;;;;;;5092196;28;20067;-55
2022/11/04 05:02:41;;;;;;;8.88;3.22;;;;;;;;;;5092792;28;20056;-54
2022/11/04 05:05:09;;;;;;;12.23;3.85;;;;;;;;;;5092365;28;20048;-54
2022/11/04 05:07:37;;;;;;;10.65;3.70;;;;;;;;;;5092378;28;20060;-55
2022/11/04 05:10:09;;;;;;;7.38;3.42;;;;;;;;;;5092576;28;20051;-54
2022/11/04 05:15:19;;;;;;;8.48;3.72;;;;;;;;;;5084207;28;20051;-56
2022/11/04 05:17:47;;;;;;;9.80;4.10;;;;;;;;;;5096430;28;20449;-55
2022/11/04 05:20:13;;;;;;;5.82;3.35;;;;;;;;;;5096685;28;20073;-55
2022/11/04 05:22:40;;;;;;;7.85;3.67;;;;;;;;;;5094286;28;20051;-55
2022/11/04 05:25:09;;;;;;;10.07;3.17;;;;;;;;;;5095376;28;20109;-55
2022/11/04 05:27:36;;;;;;;7.68;3.20;;;;;;;;;;5096514;28;20051;-52
2022/11/04 05:30:07;;;;;;;7.05;3.38;;;;;;;;;;5095752;28;20495;-52
2022/11/04 05:32:34;;;;;;;9.85;3.83;;;;;;;;;;5096547;28;20095;-55
2022/11/04 05:35:02;;;;;;;7.93;3.95;;;;;;;;;;5096293;28;20056;-55
2022/11/04 05:37:31;;;;;;;6.57;3.00;;;;;;;;;;5095962;28;20055;-53
2022/11/04 05:39:59;;;;;;;7.88;3.50;;;;;;;;;;5095563;28;20048;-55
2022/11/04 05:42:31;;;;;;;9.45;3.78;;;;;;;;;;5095216;28;20479;-56
2022/11/04 05:45:00;;;;;;;7.63;3.67;;;;;;;;;;5095426;28;20071;-56
2022/11/04 05:47:28;;;;;;;9.57;3.92;;;;;;;;;;5095001;28;20052;-53
2022/11/04 05:49:58;;;;;;;7.80;3.67;;;;;;;;;;5096266;28;20078;-53
2022/11/04 05:52:25;;;;;;;13.52;4.07;;;;;;;;;;5081711;28;20056;-54
2022/11/04 05:54:55;;;;;;;6.43;3.65;;;;;;;;;;5095639;28;20055;-55
2022/11/04 05:57:25;;;;;;;5.50;3.25;;;;;;;;;;5095945;28;20044;-55
2022/11/04 06:00:02;;;;;;;8.98;3.90;;;;;;;;;;5095079;28;20105;-55
2022/11/04 06:02:29;;;;;;;10.18;3.70;;;;;;;;;;5095278;28;20396;-53
2022/11/04 06:04:56;;;;;;;8.20;3.55;;;;;;;;;;5095859;28;20047;-53
2022/11/04 06:07:25;;;;;;;8.40;3.92;;;;;;;;;;5095774;28;20060;-54
2022/11/04 06:09:54;;;;;;;9.85;3.90;;;;;;;;;;5095320;28;20098;-56
2022/11/04 06:12:24;;;;;;;11.55;4.20;;;;;;;;;;5095232;28;20389;-55
2022/11/04 06:14:53;;;;;;;8.15;4.88;;;;;;;;;;5095309;28;20117;-52
2022/11/04 06:17:23;;;;;;;12.75;4.15;;;;;;;;;;5094876;28;20102;-53
2022/11/04 06:19:52;;;;;;;8.00;4.07;;;;;;;;;;5095393;28;20048;-53
2022/11/04 06:22:20;;;;;;;19.75;4.30;;;;;;;;;;5094908;28;20143;-52
2022/11/04 06:24:50;;;;;;;8.93;3.95;;;;;;;;;;5094587;28;20055;-53
2022/11/04 06:27:17;;;;;;;11.70;4.65;;;;;;;;;;5095400;28;20052;-54
2022/11/04 06:29:47;;;;;;;11.48;4.97;;;;;;;;;;5094727;28;20066;-52
2022/11/04 06:32:17;;;;;;;10.77;4.32;;;;;;;;;;5095037;28;20464;-52
2022/11/04 06:34:53;;;;;;;9.40;4.05;;;;;;;;;;5095063;28;20086;-52
2022/11/04 06:37:19;;;;;;;7.68;3.78;;;;;;;;;;5094636;28;20491;-52
2022/11/04 06:39:46;;;;;;;10.80;3.92;;;;;;;;;;5094977;28;20083;-52
2022/11/04 06:42:12;;;;;;;7.72;3.45;;;;;;;;;;5081101;28;20458;-53
2022/11/04 06:44:40;;;;;;;10.05;4.00;;;;;;;;;;5085734;28;20063;-55
2022/11/04 06:47:07;;;;;;;10.18;4.60;;;;;;;;;;5090273;28;20063;-53
2022/11/04 06:49:37;;;;;;;12.13;4.50;;;;;;;;;;5095186;28;20044;-52
2022/11/04 06:52:10;;;;;;;10.38;3.53;;;;;;;;;;5094763;28;20127;-53
2022/11/04 06:54:40;;;;;;;10.80;4.43;;;;;;;;;;5094849;28;20055;-52
2022/11/04 06:57:10;;;;;;;8.15;3.80;;;;;;;;;;5094074;28;20052;-52
2022/11/04 06:59:38;;;;;;;11.63;4.38;;;;;;;;;;5093883;28;20052;-53
2022/11/04 07:02:06;;;;;;;11.80;4.75;;;;;;;;;;5094343;28;20054;-56
2022/11/04 07:04:34;;;;;;;11.63;4.93;;;;;;;;;;5093428;28;20530;-52
2022/11/04 07:07:15;;;;;;;10.48;4.63;;;;;;;;;;5094401;28;20047;-52
2022/11/04 07:09:47;;;;;;;16.58;5.43;;;;;;;;;;5087591;28;20047;-50
2022/11/04 07:12:15;;;;;;;10.70;4.70;;;;;;;;;;5081925;28;20477;-52
2022/11/04 07:14:43;;;;;;;13.43;6.95;;;;;;;;;;5091679;28;20055;-55
2022/11/04 07:17:19;;;;;;;12.52;5.32;;;;;;;;;;5092376;28;20342;-52
2022/11/04 07:19:49;;;;;;;;;;;;;;;;;;5094186;28;20063;-51
2022/11/04 07:22:17;;;;;;;7.43;3.72;;;;;;;;;;5093535;28;19924;-51
2022/11/04 07:24:50;;;;;;;7.72;4.10;;;;;;;;;;5093991;28;20063;-52
2022/11/04 07:27:16;;;;;;;10.57;4.97;;;;;;;;;;5092796;28;20059;-56
2022/11/04 07:29:44;;;;;;;7.38;3.97;;;;;;;;;;5084974;28;20060;-57
2022/11/04 07:32:12;;;;;;;11.30;4.18;;;;;;;;;;5093142;28;20040;-56
2022/11/04 07:34:41;;;;;;;11.07;4.20;;;;;;;;;;5092908;28;20063;-52
2022/11/04 07:37:11;;;;;;;9.77;4.25;;;;;;;;;;5092686;28;20082;-55
2022/11/04 07:39:39;;;;;;;12.38;3.83;;;;;;;;;;5092322;28;20047;-56
2022/11/04 07:42:12;;;;;;;9.25;4.18;;;;;;;;;;5092024;28;20059;-53
2022/11/04 07:44:40;;;;;;;12.43;4.40;;;;;;;;;;5090356;28;20381;-55
2022/11/04 07:47:07;;;;;;;8.10;3.88;;;;;;;;;;5089910;28;20059;-53
2022/11/04 07:49:36;;;;;;;12.57;4.28;;;;;;;;;;5075505;28;20060;-55
2022/11/04 07:52:04;;;;;;;9.50;4.40;;;;;;;;;;5092603;28;20078;-53
2022/11/04 07:54:33;;;;;;;8.57;3.90;;;;;;;;;;5093158;28;20449;-56
2022/11/04 07:57:00;;;;;;;11.27;4.93;;;;;;;;;;5093291;28;20144;-56
2022/11/04 07:59:41;;;;;;;10.18;4.82;;;;;;;;;;5093256;28;20068;-57
2022/11/04 08:02:10;;;;;;;10.43;4.03;;;;;;;;;;5092544;28;20044;-50
2022/11/04 08:04:37;;;;;;;10.45;4.35;;;;;;;;;;5092974;28;20044;-54
2022/11/04 08:07:10;;;;;;;12.02;5.10;;;;;;;;;;5090077;28;20805;-51
2022/11/04 08:09:38;;;;;;;11.13;5.05;;;;;;;;;;5092353;28;20056;-57
2022/11/04 08:12:06;;;;;;;13.23;5.47;;;;;;;;;;5092136;28;20127;-51
2022/11/04 08:14:45;;;;;;;12.98;5.20;;;;;;;;;;5092282;28;20469;-50
2022/11/04 08:17:11;;;;;;;10.02;4.95;;;;;;;;;;5089172;28;20423;-52
2022/11/04 08:19:41;;;;;;;9.45;4.38;;;;;;;;;;5092443;28;20047;-52
2022/11/04 08:22:08;;;;;;;12.73;5.13;;;;;;;;;;5092609;28;20048;-53
2022/11/04 08:24:39;;;;;;;21.13;5.10;;;;;;;;;;5092447;28;20052;-52
2022/11/04 08:27:07;;;;;;;12.30;4.75;;;;;;;;;;5092393;28;20051;-56
2022/11/04 08:29:42;;;;;;;10.77;4.78;;;;;;;;;;5092440;28;20103;-53
2022/11/04 08:32:09;;;;;;;10.40;5.40;;;;;;;;;;5085466;28;20123;-54
2022/11/04 08:34:37;;;;;;;8.70;4.15;;;;;;;;;;5092333;28;20097;-55
2022/11/04 08:37:05;;;;;;;9.93;4.07;;;;;;;;;;5087804;28;20048;-51
2022/11/04 08:39:34;;;;;;;15.02;4.43;;;;;;;;;;5092395;28;20048;-54
2022/11/04 08:42:02;;;;;;;9.93;4.53;;;;;;;;;;5092347;28;20051;-50
2022/11/04 08:44:28;;;;;;;7.65;3.67;;;;;;;;;;5087360;28;20063;-55
2022/11/04 08:46:58;;;;;;;9.65;3.70;;;;;;;;;;5090088;28;20056;-54
2022/11/04 08:49:40;;;;;;;10.60;5.10;;;;;;;;;;5089717;28;20464;-55
2022/11/04 08:52:11;;;;;;;15.07;5.50;;;;;;;;;;5088600;28;20048;-56
2022/11/04 08:54:37;;;;;;;9.98;4.90;;;;;;;;;;5089801;28;20788;-57
2022/11/04 08:57:14;;;;;;;9.20;4.30;;;;;;;;;;5092270;28;20059;-56
2022/11/04 08:59:44;;;;;;;12.07;5.07;;;;;;;;;;5091154;28;20050;-57
2022/11/04 09:02:22;;;;;;;12.43;5.70;;;;;;;;;;5092301;28;20040;-54
2022/11/04 09:04:51;;;;;;;9.45;4.78;;;;;;;;;;5082752;28;20052;-56
2022/11/04 09:07:17;;;;;;;9.40;4.53;;;;;;;;;;5092131;28;20040;-57
2022/11/04 09:09:44;;;;;;;12.45;4.95;;;;;;;;;;5091822;28;20040;-57
2022/11/04 09:12:12;;;;;;;11.57;4.70;;;;;;;;;;5091059;28;20055;-57
2022/11/04 09:14:39;;;;;;;11.27;5.22;;;;;;;;;;5089411;28;20051;-56
2022/11/04 09:17:06;;;;;;;10.88;5.07;;;;;;;;;;5090471;28;20083;-56
2022/11/04 09:19:43;;;;;;;9.50;4.70;;;;;;;;;;5090221;28;20048;-55
2022/11/04 09:22:13;;;;;;;9.85;5.68;;;;;;;;;;5087351;28;20044;-56
2022/11/04 09:24:42;;;;;;;9.80;4.13;;;;;;;;;;5090956;28;20363;-59
2022/11/04 09:27:10;;;;;;;11.68;5.85;;;;;;;;;;5091767;28;20052;-51
2022/11/04 09:29:36;;;;;;;9.57;4.22;;;;;;;;;;5083909;28;20064;-52
2022/11/04 09:32:04;;;;;;;13.70;4.68;;;;;;;;;;5086280;28;20044;-50
2022/11/04 09:34:39;;;;;;;6.35;3.97;;;;;;;;;;5091198;28;20059;-50
2022/11/04 09:37:07;;;;;;;10.37;4.10;;;;;;;;;;5085711;28;20078;-51
2022/11/04 09:39:35;;;;;;;10.60;4.72;;;;;;;;;;5087488;28;20062;-51
2022/11/04 09:42:11;;;;;;;10.38;5.05;;;;;;;;;;5091576;28;20051;-54
2022/11/04 09:44:44;;;;;;;8.30;4.28;;;;;;;;;;5092127;28;20056;-52
2022/11/04 09:47:12;;;;;;;8.50;4.75;;;;;;;;;;5091399;28;20079;-50
2022/11/04 09:49:53;;;;;;;10.55;4.78;;;;;;;;;;5091933;28;20084;-50
2022/11/04 09:52:25;;;;;;;7.55;4.00;;;;;;;;;;5091748;28;20043;-50
2022/11/04 09:54:57;;;;;;;8.43;4.18;;;;;;;;;;5088268;28;20052;-51
2022/11/04 09:57:24;;;;;;;7.50;4.47;;;;;;;;;;5087433;28;20052;-52
2022/11/04 09:59:52;;;;;;;9.30;3.97;;;;;;;;;;5094100;28;20105;-52
2022/11/04 10:02:25;;;;;;;8.80;4.10;;;;;;;;;;5090178;28;20060;-54
2022/11/04 10:05:12;;;;;;;11.63;5.20;;;;;;;;;;5092254;28;20055;-54
2022/11/04 10:07:44;;;;;;;9.48;5.03;;;;;;;;;;5092741;28;20105;-51
2022/11/04 10:10:17;;;;;;;13.70;5.15;;;;;;;;;;5088667;28;20087;-51
2022/11/04 10:12:53;;;;;;;8.63;5.10;;;;;;;;;;5091314;28;20040;-51
2022/11/04 10:15:34;;;;;;;9.32;4.82;;;;;;;;;;5088413;28;20056;-50
2022/11/04 10:18:14;;;;;;;10.13;4.80;;;;;;;;;;5091862;28;20063;-52
2022/11/04 10:20:57;;;;;;;8.35;5.07;;;;;;;;;;5089889;28;20044;-52
2022/11/04 10:23:28;;;;;;;10.23;5.07;;;;;;;;;;5096773;27;20098;-52
2022/11/04 10:26:01;;;;;;;8.80;4.97;;;;;;;;;;5091894;28;20048;-51
2022/11/04 10:28:35;;;;;;;11.70;4.57;;;;;;;;;;5080939;28;20500;-51
2022/11/04 10:31:06;;;;;;;8.13;4.45;;;;;;;;;;5093691;28;20044;-50
2022/11/04 10:33:43;;;;;;;9.95;4.47;;;;;;;;;;5094495;28;20050;-50
2022/11/04 10:36:13;;;;;;;10.95;5.05;;;;;;;;;;5093229;28;20044;-51
2022/11/04 10:38:42;;;;;;;11.48;4.78;;;;;;;;;;5094245;28;20472;-51
2022/11/04 10:41:18;;;;;;;8.23;3.92;;;;;;;;;;5094034;28;20052;-50
2022/11/04 10:43:48;;;;;;;11.13;4.93;;;;;;;;;;5094823;28;20134;-52
2022/11/04 10:46:25;;;;;;;11.25;5.60;;;;;;;;;;5094039;28;20064;-51
2022/11/04 10:48:56;;;;;;;11.93;5.88;;;;;;;;;;5094357;28;20048;-51
2022/11/04 10:51:28;;;;;;;11.05;5.25;;;;;;;;;;5092853;28;20060;-53
2022/11/04 10:53:57;;;;;;;11.40;5.35;;;;;;;;;;5093835;28;20052;-50
2022/11/04 10:56:31;;;;;;;14.90;5.35;;;;;;;;;;5088932;28;20048;-50
2022/11/04 10:59:01;;;;;;;12.27;5.07;;;;;;;;;;5090136;28;20734;-50
2022/11/04 11:04:24;;;;;;;13.75;5.38;;;;;;;;;;5091386;28;20052;-52
2022/11/04 11:07:00;;;;;;;13.10;5.72;;;;;;;;;;5092080;28;20143;-54
2022/11/04 11:09:29;;;;;;;10.38;4.88;;;;;;;;;;5087412;28;20520;-56
2022/11/04 11:11:59;;;;;;;11.30;4.97;;;;;;;;;;5087800;28;20400;-52
2022/11/04 11:14:35;;;;;;;11.88;4.55;;;;;;;;;;5087294;28;20056;-52
2022/11/04 11:17:01;;;;;;;;;;;;;;;;;;5092761;28;20350;-51
2022/11/04 11:19:30;;;;;;;9.80;4.57;;;;;;;;;;5093074;28;20336;-51
2022/11/04 11:22:01;;;;;;;10.43;4.93;;;;;;;;;;5090648;28;20040;-52
2022/11/04 11:24:33;;;;;;;11.77;4.95;;;;;;;;;;5093031;28;20052;-50
2022/11/04 11:27:02;;;;;;;10.00;4.93;;;;;;;;;;5092948;28;20528;-54
2022/11/04 11:29:38;;;;;;;9.95;4.32;;;;;;;;;;5092861;28;20062;-50
2022/11/04 11:32:16;;;;;;;12.75;5.35;;;;;;;;;;5085139;28;20122;-49
2022/11/04 11:34:47;;;;;;;14.52;5.95;;;;;;;;;;5093488;28;20079;-50
2022/11/04 11:37:29;;;;;;;14.38;6.05;;;;;;;;;;5093590;28;20052;-52
2022/11/04 11:39:58;;;;;;;13.70;4.95;;;;;;;;;;5092440;28;20089;-52
2022/11/04 11:42:26;;;;;;;9.85;5.05;;;;;;;;;;5096001;28;20052;-54
2022/11/04 11:45:09;;;;;;;10.88;5.20;;;;;;;;;;5093681;28;20048;-52
2022/11/04 11:47:40;;;;;;;10.27;5.47;;;;;;;;;;5091253;28;20062;-51
2022/11/04 11:50:16;;;;;;;13.90;5.65;;;;;;;;;;5090850;28;20536;-50
2022/11/04 11:52:54;;;;;;;12.05;5.13;;;;;;;;;;5084152;28;20044;-50
2022/11/04 11:55:24;;;;;;;10.73;5.25;;;;;;;;;;5092266;28;20135;-53
2022/11/04 11:57:59;;;;;;;14.65;5.60;;;;;;;;;;5085207;28;20053;-52
2022/11/04 12:00:37;;;;;;;13.03;6.30;;;;;;;;;;5091715;28;20063;-54
2022/11/04 12:03:14;;;;;;;12.23;4.85;;;;;;;;;;5087304;28;20483;-55
2022/11/04 12:05:44;;;;;;;10.25;4.47;;;;;;;;;;5083382;28;20151;-52
2022/11/04 12:08:23;;;;;;;13.07;6.25;;;;;;;;;;5082695;28;20055;-54
2022/11/04 12:10:57;;;;;;;11.77;4.80;;;;;;;;;;5088297;28;20063;-52
2022/11/04 12:13:26;;;;;;;12.50;6.38;;;;;;;;;;5086642;28;20368;-53
2022/11/04 12:16:09;;;;;;;8.20;3.58;;;;;;;;;;5083861;28;20059;-52
2022/11/04 12:18:54;;;;;;;10.65;4.45;;;;;;;;;;5091844;28;20070;-53
2022/11/04 12:21:30;;;;;;;10.20;5.32;;;;;;;;;;5087998;28;20052;-51
2022/11/04 12:24:09;;;;;;;9.85;5.43;;;;;;;;;;5087398;28;20096;-50
2022/11/04 12:26:46;;;;;;;10.70;5.05;;;;;;;;;;5090289;28;20063;-49
2022/11/04 12:29:30;;;;;;;12.85;5.78;;;;;;;;;;5077045;28;20049;-52
2022/11/04 12:32:05;;;;;;;11.15;5.47;;;;;;;;;;5089622;28;20047;-51
2022/11/04 12:34:42;;;;;;;10.77;5.65;;;;;;;;;;5092686;28;20131;-49
2022/11/04 12:37:22;;;;;;;11.68;5.13;;;;;;;;;;5091216;28;20101;-49
2022/11/04 12:39:56;;;;;;;17.17;5.70;;;;;;;;;;5091144;28;20059;-49
2022/11/04 12:42:28;;;;;;;15.97;5.80;;;;;;;;;;5092328;28;20047;-50
2022/11/04 12:45:02;;;;;;;8.85;5.25;;;;;;;;;;5092191;28;20043;-53
2022/11/04 12:47:41;;;;;;;10.93;5.40;;;;;;;;;;5090925;28;20468;-50
2022/11/04 12:50:28;;;;;;;9.82;5.65;;;;;;;;;;5092437;28;20131;-50
2022/11/04 12:53:07;;;;;;;11.57;5.25;;;;;;;;;;5091839;28;20044;-53
2022/11/04 12:55:44;;;;;;;12.80;5.22;;;;;;;;;;5091924;28;20079;-53
2022/11/04 12:58:20;;;;;;;9.02;4.93;;;;;;;;;;5091945;28;20044;-53
2022/11/04 13:00:50;;;;;;;10.98;5.50;;;;;;;;;;5090672;28;20040;-57
2022/11/04 13:03:21;;;;;;;8.82;5.20;;;;;;;;;;5088557;28;20052;-55
2022/11/04 13:05:52;;;;;;;12.00;5.22;;;;;;;;;;5092143;28;20044;-50
2022/11/04 13:08:25;;;;;;;13.45;5.95;;;;;;;;;;5091891;28;20056;-51
2022/11/04 13:11:21;;;;;;;9.98;5.93;;;;;;;;;;5091544;28;20052;-51
2022/11/04 13:13:55;;;;;;;14.40;5.95;;;;;;;;;;5090978;28;20167;-54
2022/11/04 13:16:22;;;;;;;11.63;5.13;;;;;;;;;;5092125;28;20072;-52
2022/11/04 13:18:51;;;;;;;9.55;5.63;;;;;;;;;;5085264;28;20067;-55
2022/11/04 13:21:28;;;;;;;10.68;4.68;;;;;;;;;;5085938;28;20048;-52
2022/11/04 13:24:00;;;;;;;12.10;5.40;;;;;;;;;;5090973;28;20536;-52
2022/11/04 13:26:33;;;;;;;8.43;4.93;;;;;;;;;;5089946;28;20593;-53
2022/11/04 13:29:04;;;;;;;12.60;5.20;;;;;;;;;;5089147;28;20058;-56
2022/11/04 13:31:35;;;;;;;11.60;5.95;;;;;;;;;;5082547;28;20502;-52
2022/11/04 13:34:09;;;;;;;8.60;5.25;;;;;;;;;;5079103;28;20076;-54
2022/11/04 13:36:40;;;;;;;12.80;5.60;;;;;;;;;;5091309;28;20056;-54
2022/11/04 13:39:08;;;;;;;10.48;5.22;;;;;;;;;;5093847;28;20469;-52
2022/11/04 13:41:59;;;;;;;9.23;4.95;;;;;;;;;;5095822;28;20047;-51
2022/11/04 13:44:27;;;;;;;14.60;7.55;;;;;;;;;;5090668;28;20056;-52
2022/11/04 13:46:56;;;;;;;9.90;5.57;;;;;;;;;;5093259;28;20064;-51
2022/11/04 13:49:31;;;;;;;16.02;6.50;;;;;;;;;;5094552;28;20070;-52
2022/11/04 13:52:09;;;;;;;9.25;5.28;;;;;;;;;;5094879;28;20414;-52
2022/11/04 13:54:38;;;;;;;12.52;6.90;;;;;;;;;;5092932;28;20077;-50
2022/11/04 13:57:11;;;;;;;10.75;5.60;;;;;;;;;;5092873;28;20059;-50
2022/11/04 13:59:39;;;;;;;10.35;5.75;;;;;;;;;;5095122;28;20338;-51
2022/11/04 14:02:23;;;;;;;11.40;6.10;;;;;;;;;;5095342;28;20055;-55
2022/11/04 14:04:51;;;;;;;10.75;6.22;;;;;;;;;;5092347;28;20067;-54
2022/11/04 14:07:19;;;;;;;8.18;4.88;;;;;;;;;;5095472;28;20062;-51
2022/11/04 14:09:53;;;;;;;13.95;6.72;;;;;;;;;;5089979;28;20048;-51
2022/11/04 14:12:45;;;;;;;11.40;5.88;;;;;;;;;;5094042;28;20139;-52
2022/11/04 14:15:15;;;;;;;12.73;6.18;;;;;;;;;;5090045;28;20063;-52
2022/11/04 14:18:02;;;;;;;14.95;7.00;;;;;;;;;;5095220;28;20044;-52
2022/11/04 14:20:33;;;;;;;14.07;6.32;;;;;;;;;;5094164;28;20052;-54
2022/11/04 14:23:09;;;;;;;16.58;7.00;;;;;;;;;;5093549;28;20071;-55
2022/11/04 14:25:45;;;;;;;14.13;6.32;;;;;;;;;;5084581;28;20052;-53
2022/11/04 14:28:26;;;;;;;14.10;6.82;;;;;;;;;;5093443;28;20058;-55
2022/11/04 14:30:54;;;;;;;16.60;7.32;;;;;;;;;;5093598;28;20476;-52
2022/11/04 14:33:39;;;;;;;10.95;5.72;;;;;;;;;;5091617;28;20044;-55
2022/11/04 14:36:28;;;;;;;13.15;5.88;;;;;;;;;;5093124;28;20697;-54
2022/11/04 14:38:56;;;;;;;8.40;4.45;;;;;;;;;;5090174;28;20049;-56
2022/11/04 14:41:37;;;;;;;15.88;6.47;;;;;;;;;;5096608;28;20396;-55
2022/11/04 14:44:08;;;;;;;12.63;6.40;;;;;;;;;;5092039;28;20481;-55
2022/11/04 14:46:40;;;;;;;11.07;5.28;;;;;;;;;;5091537;28;20075;-56
2022/11/04 14:49:10;;;;;;;12.13;5.60;;;;;;;;;;5092279;28;20048;-56
2022/11/04 14:51:40;;;;;;;11.18;5.50;;;;;;;;;;5092342;28;20044;-56
2022/11/04 14:54:12;;;;;;;8.60;5.03;;;;;;;;;;5091593;28;20040;-55
2022/11/04 14:56:40;;;;;;;8.75;4.70;;;;;;;;;;5092550;28;20052;-53
2022/11/04 14:59:20;;;;;;;11.43;5.07;;;;;;;;;;5091445;28;20444;-53
2022/11/04 15:01:51;;;;;;;11.40;5.63;;;;;;;;;;5091825;28;20396;-51
2022/11/04 15:04:24;;;;;;;8.35;4.25;;;;;;;;;;5087890;28;20052;-50
2022/11/04 15:06:54;;;;;;;10.35;4.72;;;;;;;;;;5093404;28;20056;-51
2022/11/04 15:09:22;;;;;;;9.38;4.25;;;;;;;;;;5088052;28;20087;-51
2022/11/04 15:14:39;;;;;;;9.48;4.65;;;;;;;;;;5090419;28;20317;-50
2022/11/04 15:17:07;;;;;;;9.30;3.78;;;;;;;;;;5089794;28;20079;-51
2022/11/04 15:19:36;;;;;;;12.63;5.38;;;;;;;;;;5093920;28;20044;-50
2022/11/04 15:22:12;;;;;;;11.02;5.22;;;;;;;;;;5093832;28;20047;-51
2022/11/04 15:24:49;;;;;;;14.43;6.50;;;;;;;;;;5089914;28;20596;-53
2022/11/04 15:27:18;;;;;;;11.18;5.03;;;;;;;;;;5092723;28;20149;-50
2022/11/04 15:30:01;;;;;;;14.90;5.25;;;;;;;;;;5093728;28;20052;-51
2022/11/04 15:32:32;;;;;;;8.40;4.13;;;;;;;;;;5093862;28;20059;-50
2022/11/04 15:35:01;;;;;;;13.90;6.15;;;;;;;;;;5089969;28;20121;-52
2022/11/04 15:37:29;;;;;;;13.32;5.72;;;;;;;;;;5092823;28;20138;-53
2022/11/04 15:39:59;;;;;;;9.95;4.68;;;;;;;;;;5088673;28;20047;-52
2022/11/04 15:42:43;;;;;;;9.90;5.13;;;;;;;;;;5091016;28;20054;-52
2022/11/04 15:45:39;;;;;;;15.05;7.07;;;;;;;;;;5083174;28;20453;-54